sensor_id;sensor_type;location;lat;lon;timestamp;pressure;altitude;pressure_sealevel;temperature;humidity
75627;BME280;67372;49.404;11.034;2023-07-29T00:01:13;97742.06;;;17.98;84.63
75627;BME280;67372;49.404;11.034;2023-07-29T00:03:39;97739.38;;;17.98;84.49
75627;BME280;67372;49.404;11.034;2023-07-29T00:06:05;97744.78;;;17.98;84.52
75627;BME280;67372;49.404;11.034;2023-07-29T00:08:32;97739.63;;;17.97;84.53
75627;BME280;67372;49.404;11.034;2023-07-29T00:10:58;97732.88;;;17.94;84.57
75627;BME280;67372;49.404;11.034;2023-07-29T00:13:25;97731.00;;;17.90;84.73
75627;BME280;67372;49.404;11.034;2023-07-29T00:15:54;97722.41;;;17.83;85.78
75627;BME280;67372;49.404;11.034;2023-07-29T00:18:21;97725.41;;;17.76;86.30
75627;BME280;67372;49.404;11.034;2023-07-29T00:20:47;97720.28;;;17.74;86.06
75627;BME280;67372;49.404;11.034;2023-07-29T00:23:14;97715.69;;;17.70;87.12
75627;BME280;67372;49.404;11.034;2023-07-29T00:25:40;97716.50;;;17.65;87.81
75627;BME280;67372;49.404;11.034;2023-07-29T00:28:06;97713.78;;;17.65;87.78
75627;BME280;67372;49.404;11.034;2023-07-29T00:30:33;97707.84;;;17.63;87.84
75627;BME280;67372;49.404;11.034;2023-07-29T00:32:59;97711.38;;;17.64;87.51
75627;BME280;67372;49.404;11.034;2023-07-29T00:35:26;97710.56;;;17.63;87.93
75627;BME280;67372;49.404;11.034;2023-07-29T00:37:52;97711.63;;;17.62;87.75
75627;BME280;67372;49.404;11.034;2023-07-29T00:40:22;97713.53;;;17.62;87.76
75627;BME280;67372;49.404;11.034;2023-07-29T00:42:49;97717.84;;;17.63;87.59
75627;BME280;67372;49.404;11.034;2023-07-29T00:45:16;97716.75;;;17.64;87.36
75627;BME280;67372;49.404;11.034;2023-07-29T00:47:42;97720.25;;;17.64;86.99
75627;BME280;67372;49.404;11.034;2023-07-29T00:50:11;97722.44;;;17.62;87.17
75627;BME280;67372;49.404;11.034;2023-07-29T00:52:38;97717.03;;;17.62;87.27
75627;BME280;67372;49.404;11.034;2023-07-29T00:55:05;97723.25;;;17.63;86.73
75627;BME280;67372;49.404;11.034;2023-07-29T00:57:33;97721.09;;;17.60;86.73
75627;BME280;67372;49.404;11.034;2023-07-29T01:00:00;97721.66;;;17.57;86.75
75627;BME280;67372;49.404;11.034;2023-07-29T01:02:27;97730.00;;;17.55;86.78
75627;BME280;67372;49.404;11.034;2023-07-29T01:04:54;97717.31;;;17.50;86.95
75627;BME280;67372;49.404;11.034;2023-07-29T01:07:26;97720.03;;;17.45;87.23
75627;BME280;67372;49.404;11.034;2023-07-29T01:10:07;97718.16;;;17.41;87.45
75627;BME280;67372;49.404;11.034;2023-07-29T01:12:47;97729.75;;;17.36;87.09
75627;BME280;67372;49.404;11.034;2023-07-29T01:15:16;97727.34;;;17.35;87.04
75627;BME280;67372;49.404;11.034;2023-07-29T01:17:49;97724.38;;;17.31;86.84
75627;BME280;67372;49.404;11.034;2023-07-29T01:20:19;97720.34;;;17.29;86.98
75627;BME280;67372;49.404;11.034;2023-07-29T01:22:46;97723.31;;;17.27;86.93
75627;BME280;67372;49.404;11.034;2023-07-29T01:25:13;97730.03;;;17.25;86.57
75627;BME280;67372;49.404;11.034;2023-07-29T01:27:42;97720.88;;;17.21;87.10
75627;BME280;67372;49.404;11.034;2023-07-29T01:30:09;97730.84;;;17.15;87.41
75627;BME280;67372;49.404;11.034;2023-07-29T01:32:54;97720.34;;;17.08;89.27
75627;BME280;67372;49.404;11.034;2023-07-29T01:35:33;97725.19;;;17.01;88.79
75627;BME280;67372;49.404;11.034;2023-07-29T01:38:07;97726.53;;;16.94;89.05
75627;BME280;67372;49.404;11.034;2023-07-29T01:40:35;97718.44;;;16.88;89.54
75627;BME280;67372;49.404;11.034;2023-07-29T01:43:02;97712.25;;;16.83;90.12
75627;BME280;67372;49.404;11.034;2023-07-29T01:45:29;97717.34;;;16.79;90.06
75627;BME280;67372;49.404;11.034;2023-07-29T01:47:55;97720.84;;;16.75;90.32
75627;BME280;67372;49.404;11.034;2023-07-29T01:50:22;97716.28;;;16.70;90.42
75627;BME280;67372;49.404;11.034;2023-07-29T01:52:48;97711.97;;;16.69;90.41
75627;BME280;67372;49.404;11.034;2023-07-29T01:55:14;97704.16;;;16.68;90.52
75627;BME280;67372;49.404;11.034;2023-07-29T01:57:41;97710.84;;;16.65;91.66
75627;BME280;67372;49.404;11.034;2023-07-29T02:00:07;97701.44;;;16.63;91.62
75627;BME280;67372;49.404;11.034;2023-07-29T02:02:34;97706.81;;;16.63;91.09
75627;BME280;67372;49.404;11.034;2023-07-29T02:05:00;97700.34;;;16.64;90.73
75627;BME280;67372;49.404;11.034;2023-07-29T02:07:27;97700.63;;;16.62;91.51
75627;BME280;67372;49.404;11.034;2023-07-29T02:09:53;97702.50;;;16.62;90.81
75627;BME280;67372;49.404;11.034;2023-07-29T02:12:20;97694.44;;;16.62;89.86
75627;BME280;67372;49.404;11.034;2023-07-29T02:14:46;97705.19;;;16.62;89.92
75627;BME280;67372;49.404;11.034;2023-07-29T02:17:12;97694.16;;;16.63;89.71
75627;BME280;67372;49.404;11.034;2023-07-29T02:19:39;97693.63;;;16.61;89.76
75627;BME280;67372;49.404;11.034;2023-07-29T02:22:05;97693.88;;;16.60;90.09
75627;BME280;67372;49.404;11.034;2023-07-29T02:24:32;97687.16;;;16.57;89.71
75627;BME280;67372;49.404;11.034;2023-07-29T02:26:58;97680.38;;;16.54;89.51
75627;BME280;67372;49.404;11.034;2023-07-29T02:29:24;97676.88;;;16.54;89.84
75627;BME280;67372;49.404;11.034;2023-07-29T02:31:51;97666.66;;;16.51;90.07
75627;BME280;67372;49.404;11.034;2023-07-29T02:34:17;97668.81;;;16.49;90.22
75627;BME280;67372;49.404;11.034;2023-07-29T02:36:44;97676.88;;;16.49;89.71
75627;BME280;67372;49.404;11.034;2023-07-29T02:39:10;97673.94;;;16.45;89.34
75627;BME280;67372;49.404;11.034;2023-07-29T02:41:37;97666.94;;;16.44;89.43
75627;BME280;67372;49.404;11.034;2023-07-29T02:44:05;97654.28;;;16.40;89.50
75627;BME280;67372;49.404;11.034;2023-07-29T02:46:31;97658.31;;;16.37;89.72
75627;BME280;67372;49.404;11.034;2023-07-29T02:48:57;97654.00;;;16.36;88.80
75627;BME280;67372;49.404;11.034;2023-07-29T02:51:24;97653.19;;;16.36;89.76
75627;BME280;67372;49.404;11.034;2023-07-29T02:53:50;97657.78;;;16.35;89.36
75627;BME280;67372;49.404;11.034;2023-07-29T02:56:17;97651.03;;;16.33;89.54
75627;BME280;67372;49.404;11.034;2023-07-29T02:58:43;97649.66;;;16.25;90.11
75627;BME280;67372;49.404;11.034;2023-07-29T03:01:10;97642.38;;;16.20;90.74
75627;BME280;67372;49.404;11.034;2023-07-29T03:03:36;97652.63;;;16.18;90.55
75627;BME280;67372;49.404;11.034;2023-07-29T03:06:05;97658.81;;;16.19;90.44
75627;BME280;67372;49.404;11.034;2023-07-29T03:08:31;97652.88;;;16.17;90.85
75627;BME280;67372;49.404;11.034;2023-07-29T03:10:58;97667.69;;;16.14;91.15
75627;BME280;67372;49.404;11.034;2023-07-29T03:13:25;97668.97;;;16.07;92.91
75627;BME280;67372;49.404;11.034;2023-07-29T03:15:51;97663.06;;;16.05;91.42
75627;BME280;67372;49.404;11.034;2023-07-29T03:18:17;97665.75;;;16.05;91.62
75627;BME280;67372;49.404;11.034;2023-07-29T03:20:44;97665.47;;;16.06;92.03
75627;BME280;67372;49.404;11.034;2023-07-29T03:23:10;97669.53;;;16.09;92.02
75627;BME280;67372;49.404;11.034;2023-07-29T03:25:37;97668.47;;;16.10;91.91
75627;BME280;67372;49.404;11.034;2023-07-29T03:28:03;97677.38;;;16.10;91.67
75627;BME280;67372;49.404;11.034;2023-07-29T03:30:30;97674.41;;;16.12;91.54
75627;BME280;67372;49.404;11.034;2023-07-29T03:32:56;97674.69;;;16.15;91.62
75627;BME280;67372;49.404;11.034;2023-07-29T03:35:22;97675.75;;;16.19;91.42
75627;BME280;67372;49.404;11.034;2023-07-29T03:37:49;97673.34;;;16.23;91.12
75627;BME280;67372;49.404;11.034;2023-07-29T03:40:15;97679.00;;;16.26;91.14
75627;BME280;67372;49.404;11.034;2023-07-29T03:42:41;97671.19;;;16.30;91.49
75627;BME280;67372;49.404;11.034;2023-07-29T03:45:08;97669.63;;;16.34;90.82
75627;BME280;67372;49.404;11.034;2023-07-29T03:47:35;97666.94;;;16.39;90.71
75627;BME280;67372;49.404;11.034;2023-07-29T03:50:01;97664.78;;;16.46;90.99
75627;BME280;67372;49.404;11.034;2023-07-29T03:52:28;97661.00;;;16.52;90.72
75627;BME280;67372;49.404;11.034;2023-07-29T03:54:54;97662.13;;;16.56;91.25
75627;BME280;67372;49.404;11.034;2023-07-29T03:57:20;97664.25;;;16.60;90.85
75627;BME280;67372;49.404;11.034;2023-07-29T03:59:47;97657.81;;;16.61;91.52
75627;BME280;67372;49.404;11.034;2023-07-29T04:02:13;97656.44;;;16.63;91.40
75627;BME280;67372;49.404;11.034;2023-07-29T04:04:40;97654.06;;;16.67;91.75
75627;BME280;67372;49.404;11.034;2023-07-29T04:07:06;97641.13;;;16.69;92.42
75627;BME280;67372;49.404;11.034;2023-07-29T04:09:32;97642.19;;;16.73;92.38
75627;BME280;67372;49.404;11.034;2023-07-29T04:11:59;97628.44;;;16.79;91.97
75627;BME280;67372;49.404;11.034;2023-07-29T04:14:25;97628.72;;;16.88;91.81
75627;BME280;67372;49.404;11.034;2023-07-29T04:16:52;97618.75;;;16.94;91.74
75627;BME280;67372;49.404;11.034;2023-07-29T04:19:18;97623.84;;;17.00;91.71
75627;BME280;67372;49.404;11.034;2023-07-29T04:21:44;97614.44;;;17.08;91.07
75627;BME280;67372;49.404;11.034;2023-07-29T04:24:11;97622.50;;;17.13;91.02
75627;BME280;67372;49.404;11.034;2023-07-29T04:26:37;97618.97;;;17.17;91.17
75627;BME280;67372;49.404;11.034;2023-07-29T04:29:04;97629.19;;;17.26;90.80
75627;BME280;67372;49.404;11.034;2023-07-29T04:31:30;97624.06;;;17.34;90.63
75627;BME280;67372;49.404;11.034;2023-07-29T04:33:57;97634.00;;;17.44;90.68
75627;BME280;67372;49.404;11.034;2023-07-29T04:36:23;97628.03;;;17.57;90.40
75627;BME280;67372;49.404;11.034;2023-07-29T04:38:50;97624.50;;;17.72;90.42
75627;BME280;67372;49.404;11.034;2023-07-29T04:41:16;97621.94;;;17.96;90.16
75627;BME280;67372;49.404;11.034;2023-07-29T04:43:42;97618.03;;;18.17;89.38
75627;BME280;67372;49.404;11.034;2023-07-29T04:46:09;97622.50;;;18.37;88.67
75627;BME280;67372;49.404;11.034;2023-07-29T04:48:35;97614.25;;;18.57;88.27
75627;BME280;67372;49.404;11.034;2023-07-29T04:51:02;97624.13;;;18.77;87.28
75627;BME280;67372;49.404;11.034;2023-07-29T04:53:28;97622.13;;;18.93;86.09
75627;BME280;67372;49.404;11.034;2023-07-29T04:55:55;97618.28;;;18.99;84.96
75627;BME280;67372;49.404;11.034;2023-07-29T04:58:21;97616.25;;;19.10;84.39
75627;BME280;67372;49.404;11.034;2023-07-29T05:00:47;97613.31;;;19.06;83.84
75627;BME280;67372;49.404;11.034;2023-07-29T05:03:14;97607.56;;;19.13;83.30
75627;BME280;67372;49.404;11.034;2023-07-29T05:05:40;97605.66;;;19.18;83.07
75627;BME280;67372;49.404;11.034;2023-07-29T05:08:06;97605.88;;;19.22;83.03
75627;BME280;67372;49.404;11.034;2023-07-29T05:10:34;97601.59;;;19.16;82.59
75627;BME280;67372;49.404;11.034;2023-07-29T05:13:00;97601.66;;;19.11;82.38
75627;BME280;67372;49.404;11.034;2023-07-29T05:15:27;97598.38;;;19.14;82.54
75627;BME280;67372;49.404;11.034;2023-07-29T05:17:53;97599.75;;;19.11;82.01
75627;BME280;67372;49.404;11.034;2023-07-29T05:20:20;97602.97;;;19.13;82.26
75627;BME280;67372;49.404;11.034;2023-07-29T05:22:46;97598.66;;;19.12;82.04
75627;BME280;67372;49.404;11.034;2023-07-29T05:25:13;97605.72;;;19.08;81.77
75627;BME280;67372;49.404;11.034;2023-07-29T05:27:39;97609.88;;;19.00;82.15
75627;BME280;67372;49.404;11.034;2023-07-29T05:30:07;97608.72;;;19.07;82.37
75627;BME280;67372;49.404;11.034;2023-07-29T05:32:34;97612.47;;;19.11;82.11
75627;BME280;67372;49.404;11.034;2023-07-29T05:35:00;97609.47;;;19.12;82.11
75627;BME280;67372;49.404;11.034;2023-07-29T05:37:27;97612.16;;;19.12;81.96
75627;BME280;67372;49.404;11.034;2023-07-29T05:39:53;97606.19;;;19.15;82.12
75627;BME280;67372;49.404;11.034;2023-07-29T05:42:19;97602.94;;;19.18;82.02
75627;BME280;67372;49.404;11.034;2023-07-29T05:44:46;97610.41;;;19.26;81.73
75627;BME280;67372;49.404;11.034;2023-07-29T05:47:12;97613.13;;;19.26;81.70
75627;BME280;67372;49.404;11.034;2023-07-29T05:49:38;97603.09;;;19.27;81.81
75627;BME280;67372;49.404;11.034;2023-07-29T05:52:05;97606.03;;;19.30;81.66
75627;BME280;67372;49.404;11.034;2023-07-29T05:54:32;97603.56;;;19.34;81.60
75627;BME280;67372;49.404;11.034;2023-07-29T05:56:58;97599.25;;;19.33;81.47
75627;BME280;67372;49.404;11.034;2023-07-29T05:59:24;97605.97;;;19.36;81.06
75627;BME280;67372;49.404;11.034;2023-07-29T06:01:51;97605.47;;;19.33;81.03
75627;BME280;67372;49.404;11.034;2023-07-29T06:04:17;97618.69;;;19.35;81.37
75627;BME280;67372;49.404;11.034;2023-07-29T06:06:43;97623.06;;;19.31;81.33
75627;BME280;67372;49.404;11.034;2023-07-29T06:09:10;97630.44;;;19.25;81.71
75627;BME280;67372;49.404;11.034;2023-07-29T06:11:36;97631.53;;;19.24;81.56
75627;BME280;67372;49.404;11.034;2023-07-29T06:14:03;97631.25;;;19.26;81.61
75627;BME280;67372;49.404;11.034;2023-07-29T06:16:29;97627.56;;;19.17;81.81
75627;BME280;67372;49.404;11.034;2023-07-29T06:18:56;97627.66;;;19.07;82.44
75627;BME280;67372;49.404;11.034;2023-07-29T06:21:23;97627.66;;;19.07;82.63
75627;BME280;67372;49.404;11.034;2023-07-29T06:23:50;97630.06;;;19.08;82.22
75627;BME280;67372;49.404;11.034;2023-07-29T06:26:16;97623.34;;;19.06;82.55
75627;BME280;67372;49.404;11.034;2023-07-29T06:28:43;97633.06;;;19.07;82.36
75627;BME280;67372;49.404;11.034;2023-07-29T06:31:09;97631.44;;;19.06;82.48
75627;BME280;67372;49.404;11.034;2023-07-29T06:33:35;97628.50;;;19.02;82.47
75627;BME280;67372;49.404;11.034;2023-07-29T06:36:02;97639.91;;;18.99;82.97
75627;BME280;67372;49.404;11.034;2023-07-29T06:38:29;97662.09;;;18.96;83.24
75627;BME280;67372;49.404;11.034;2023-07-29T06:40:55;97671.03;;;18.91;83.83
75627;BME280;67372;49.404;11.034;2023-07-29T06:43:21;97690.25;;;18.90;84.09
75627;BME280;67372;49.404;11.034;2023-07-29T06:45:48;97667.91;;;18.79;85.36
75627;BME280;67372;49.404;11.034;2023-07-29T06:48:14;97665.53;;;18.73;85.91
75627;BME280;67372;49.404;11.034;2023-07-29T06:50:41;97638.81;;;18.61;86.96
75627;BME280;67372;49.404;11.034;2023-07-29T06:53:08;97633.75;;;18.54;87.04
75627;BME280;67372;49.404;11.034;2023-07-29T06:55:35;97645.63;;;18.53;87.07
75627;BME280;67372;49.404;11.034;2023-07-29T06:58:01;97647.81;;;18.51;87.12
75627;BME280;67372;49.404;11.034;2023-07-29T07:00:28;97652.13;;;18.52;87.05
75627;BME280;67372;49.404;11.034;2023-07-29T07:02:54;97646.72;;;18.52;87.43
75627;BME280;67372;49.404;11.034;2023-07-29T07:05:21;97649.94;;;18.54;87.17
75627;BME280;67372;49.404;11.034;2023-07-29T07:07:47;97661.53;;;18.60;87.43
75627;BME280;67372;49.404;11.034;2023-07-29T07:10:14;97661.50;;;18.65;87.71
75627;BME280;67372;49.404;11.034;2023-07-29T07:12:40;97653.09;;;18.72;87.72
75627;BME280;67372;49.404;11.034;2023-07-29T07:15:07;97656.00;;;18.80;87.80
75627;BME280;67372;49.404;11.034;2023-07-29T07:17:34;97650.50;;;18.90;88.00
75627;BME280;67372;49.404;11.034;2023-07-29T07:20:00;97636.28;;;19.09;87.50
75627;BME280;67372;49.404;11.034;2023-07-29T07:22:26;97638.28;;;19.27;87.23
75627;BME280;67372;49.404;11.034;2023-07-29T07:24:53;97625.94;;;19.40;87.29
75627;BME280;67372;49.404;11.034;2023-07-29T07:27:19;97619.19;;;19.42;87.42
75627;BME280;67372;49.404;11.034;2023-07-29T07:29:46;97619.06;;;19.52;87.09
75627;BME280;67372;49.404;11.034;2023-07-29T07:32:12;97625.56;;;19.75;86.71
75627;BME280;67372;49.404;11.034;2023-07-29T07:34:38;97625.31;;;19.96;86.09
75627;BME280;67372;49.404;11.034;2023-07-29T07:37:05;97628.06;;;20.14;85.18
75627;BME280;67372;49.404;11.034;2023-07-29T07:39:32;97633.53;;;20.28;84.49
75627;BME280;67372;49.404;11.034;2023-07-29T07:41:58;97630.38;;;20.40;84.24
75627;BME280;67372;49.404;11.034;2023-07-29T07:44:24;97626.16;;;20.52;83.81
75627;BME280;67372;49.404;11.034;2023-07-29T07:46:51;97623.81;;;20.65;83.43
75627;BME280;67372;49.404;11.034;2023-07-29T07:49:17;97631.97;;;20.78;82.92
75627;BME280;67372;49.404;11.034;2023-07-29T07:51:44;97630.81;;;20.84;82.52
75627;BME280;67372;49.404;11.034;2023-07-29T07:54:10;97625.88;;;20.87;82.16
75627;BME280;67372;49.404;11.034;2023-07-29T07:56:36;97625.69;;;20.83;81.31
75627;BME280;67372;49.404;11.034;2023-07-29T07:59:03;97625.53;;;20.74;81.40
75627;BME280;67372;49.404;11.034;2023-07-29T08:01:37;97632.94;;;20.69;81.30
75627;BME280;67372;49.404;11.034;2023-07-29T08:04:04;97632.59;;;20.57;81.48
75627;BME280;67372;49.404;11.034;2023-07-29T08:06:32;97629.38;;;20.36;81.81
75627;BME280;67372;49.404;11.034;2023-07-29T08:08:58;97635.94;;;20.30;82.17
75627;BME280;67372;49.404;11.034;2023-07-29T08:11:25;97633.31;;;20.24;82.20
75627;BME280;67372;49.404;11.034;2023-07-29T08:13:52;97626.88;;;20.20;81.90
75627;BME280;67372;49.404;11.034;2023-07-29T08:16:18;97633.69;;;20.18;82.00
75627;BME280;67372;49.404;11.034;2023-07-29T08:18:45;97643.00;;;20.12;82.20
75627;BME280;67372;49.404;11.034;2023-07-29T08:21:11;97640.31;;;20.07;81.98
75627;BME280;67372;49.404;11.034;2023-07-29T08:23:37;97623.06;;;20.03;82.56
75627;BME280;67372;49.404;11.034;2023-07-29T08:26:05;97637.09;;;20.05;82.91
75627;BME280;67372;49.404;11.034;2023-07-29T08:28:38;97641.41;;;20.06;83.38
75627;BME280;67372;49.404;11.034;2023-07-29T08:31:06;97654.97;;;20.06;83.50
75627;BME280;67372;49.404;11.034;2023-07-29T08:33:32;97660.88;;;20.08;83.08
75627;BME280;67372;49.404;11.034;2023-07-29T08:35:59;97638.19;;;20.04;83.24
75627;BME280;67372;49.404;11.034;2023-07-29T08:38:25;97640.97;;;19.99;83.81
75627;BME280;67372;49.404;11.034;2023-07-29T08:41:14;97637.53;;;19.93;84.43
75627;BME280;67372;49.404;11.034;2023-07-29T08:43:50;97640.84;;;19.90;85.12
75627;BME280;67372;49.404;11.034;2023-07-29T08:46:19;97635.16;;;19.86;85.22
75627;BME280;67372;49.404;11.034;2023-07-29T08:48:45;97642.47;;;19.86;84.82
75627;BME280;67372;49.404;11.034;2023-07-29T08:51:12;97637.88;;;19.86;85.25
75627;BME280;67372;49.404;11.034;2023-07-29T08:53:39;97619.56;;;19.78;85.88
75627;BME280;67372;49.404;11.034;2023-07-29T08:56:06;97628.06;;;19.72;86.31
75627;BME280;67372;49.404;11.034;2023-07-29T08:58:33;97626.25;;;19.62;86.35
75627;BME280;67372;49.404;11.034;2023-07-29T09:01:00;97617.44;;;19.51;87.56
75627;BME280;67372;49.404;11.034;2023-07-29T09:03:27;97629.06;;;19.52;87.13
75627;BME280;67372;49.404;11.034;2023-07-29T09:05:55;97632.84;;;19.56;87.17
75627;BME280;67372;49.404;11.034;2023-07-29T09:08:22;97613.53;;;19.62;86.86
75627;BME280;67372;49.404;11.034;2023-07-29T09:10:50;97625.94;;;19.69;86.86
75627;BME280;67372;49.404;11.034;2023-07-29T09:13:16;97632.88;;;19.75;86.73
75627;BME280;67372;49.404;11.034;2023-07-29T09:15:42;97632.09;;;19.74;86.98
75627;BME280;67372;49.404;11.034;2023-07-29T09:18:19;97635.31;;;19.76;87.10
75627;BME280;67372;49.404;11.034;2023-07-29T09:20:48;97635.53;;;19.80;86.74
75627;BME280;67372;49.404;11.034;2023-07-29T09:23:14;97641.47;;;19.82;86.62
75627;BME280;67372;49.404;11.034;2023-07-29T09:25:41;97635.00;;;19.78;86.80
75627;BME280;67372;49.404;11.034;2023-07-29T09:28:13;97651.56;;;19.76;86.22
75627;BME280;67372;49.404;11.034;2023-07-29T09:30:42;97669.84;;;19.84;85.86
75627;BME280;67372;49.404;11.034;2023-07-29T09:33:09;97670.94;;;19.83;85.91
75627;BME280;67372;49.404;11.034;2023-07-29T09:35:37;97670.50;;;19.76;86.26
75627;BME280;67372;49.404;11.034;2023-07-29T09:38:05;97669.97;;;19.74;86.59
75627;BME280;67372;49.404;11.034;2023-07-29T09:40:39;97661.88;;;19.74;87.34
75627;BME280;67372;49.404;11.034;2023-07-29T09:43:06;97656.09;;;19.81;87.14
75627;BME280;67372;49.404;11.034;2023-07-29T09:45:34;97658.69;;;19.91;86.89
75627;BME280;67372;49.404;11.034;2023-07-29T09:48:02;97660.16;;;20.02;86.85
75627;BME280;67372;49.404;11.034;2023-07-29T09:50:29;97658.56;;;20.20;86.93
75627;BME280;67372;49.404;11.034;2023-07-29T09:52:57;97657.66;;;20.48;86.47
75627;BME280;67372;49.404;11.034;2023-07-29T09:55:24;97661.00;;;20.78;85.76
75627;BME280;67372;49.404;11.034;2023-07-29T09:58:04;97643.72;;;21.06;84.10
75627;BME280;67372;49.404;11.034;2023-07-29T10:00:31;97639.28;;;21.43;84.48
75627;BME280;67372;49.404;11.034;2023-07-29T10:02:59;97634.66;;;21.71;83.22
75627;BME280;67372;49.404;11.034;2023-07-29T10:05:26;97631.22;;;21.93;82.37
75627;BME280;67372;49.404;11.034;2023-07-29T10:07:54;97644.56;;;22.30;82.08
75627;BME280;67372;49.404;11.034;2023-07-29T10:10:21;97652.34;;;22.59;79.79
75627;BME280;67372;49.404;11.034;2023-07-29T10:12:48;97651.84;;;22.80;79.36
75627;BME280;67372;49.404;11.034;2023-07-29T10:15:15;97653.34;;;23.08;78.53
75627;BME280;67372;49.404;11.034;2023-07-29T10:17:42;97651.72;;;23.30;77.62
75627;BME280;67372;49.404;11.034;2023-07-29T10:20:09;97653.56;;;23.51;76.94
75627;BME280;67372;49.404;11.034;2023-07-29T10:25:07;97640.16;;;24.12;74.61
75627;BME280;67372;49.404;11.034;2023-07-29T10:27:42;97637.00;;;24.36;73.04
75627;BME280;67372;49.404;11.034;2023-07-29T10:30:10;97622.91;;;24.51;72.73
75627;BME280;67372;49.404;11.034;2023-07-29T10:32:37;97625.00;;;24.63;71.82
75627;BME280;67372;49.404;11.034;2023-07-29T10:35:04;97621.13;;;24.72;71.23
75627;BME280;67372;49.404;11.034;2023-07-29T10:37:31;97620.66;;;24.88;70.92
75627;BME280;67372;49.404;11.034;2023-07-29T10:39:58;97621.28;;;24.93;68.08
75627;BME280;67372;49.404;11.034;2023-07-29T10:42:24;97625.94;;;25.01;68.68
75627;BME280;67372;49.404;11.034;2023-07-29T10:44:52;97628.16;;;25.17;69.51
75627;BME280;67372;49.404;11.034;2023-07-29T10:47:29;97626.19;;;25.34;67.96
75627;BME280;67372;49.404;11.034;2023-07-29T10:49:57;97633.97;;;25.53;68.38
75627;BME280;67372;49.404;11.034;2023-07-29T10:54:59;97630.91;;;25.55;63.91
75627;BME280;67372;49.404;11.034;2023-07-29T10:57:34;97628.69;;;25.48;65.61
75627;BME280;67372;49.404;11.034;2023-07-29T11:00:02;97624.41;;;25.30;66.81
75627;BME280;67372;49.404;11.034;2023-07-29T11:02:32;97627.19;;;25.13;65.64
75627;BME280;67372;49.404;11.034;2023-07-29T11:05:04;97625.75;;;25.06;66.43
75627;BME280;67372;49.404;11.034;2023-07-29T11:07:31;97623.03;;;25.15;66.64
75627;BME280;67372;49.404;11.034;2023-07-29T11:09:59;97612.44;;;25.52;64.99
75627;BME280;67372;49.404;11.034;2023-07-29T11:12:50;97621.88;;;25.63;65.92
75627;BME280;67372;49.404;11.034;2023-07-29T11:15:25;97620.06;;;25.76;62.79
75627;BME280;67372;49.404;11.034;2023-07-29T11:17:56;97621.22;;;25.66;63.37
75627;BME280;67372;49.404;11.034;2023-07-29T11:20:30;97615.16;;;25.60;62.70
75627;BME280;67372;49.404;11.034;2023-07-29T11:23:02;97601.38;;;25.48;62.80
75627;BME280;67372;49.404;11.034;2023-07-29T11:25:31;97625.34;;;25.43;62.59
75627;BME280;67372;49.404;11.034;2023-07-29T11:27:59;97621.19;;;25.36;62.23
75627;BME280;67372;49.404;11.034;2023-07-29T11:30:27;97632.31;;;25.23;62.36
75627;BME280;67372;49.404;11.034;2023-07-29T11:32:55;97625.28;;;25.04;63.50
75627;BME280;67372;49.404;11.034;2023-07-29T11:35:22;97614.88;;;24.55;65.33
75627;BME280;67372;49.404;11.034;2023-07-29T11:37:50;97615.84;;;24.33;66.76
75627;BME280;67372;49.404;11.034;2023-07-29T11:40:21;97620.78;;;24.13;68.43
75627;BME280;67372;49.404;11.034;2023-07-29T11:42:50;97623.31;;;24.01;68.89
75627;BME280;67372;49.404;11.034;2023-07-29T11:45:18;97624.44;;;23.92;68.51
75627;BME280;67372;49.404;11.034;2023-07-29T11:47:45;97623.13;;;23.89;68.55
75627;BME280;67372;49.404;11.034;2023-07-29T11:50:13;97617.84;;;23.93;69.39
75627;BME280;67372;49.404;11.034;2023-07-29T11:52:45;97615.44;;;23.91;69.56
75627;BME280;67372;49.404;11.034;2023-07-29T11:55:12;97604.84;;;23.81;69.88
75627;BME280;67372;49.404;11.034;2023-07-29T11:57:40;97606.47;;;23.91;70.09
75627;BME280;67372;49.404;11.034;2023-07-29T12:00:08;97595.41;;;24.04;69.42
75627;BME280;67372;49.404;11.034;2023-07-29T12:02:37;97594.31;;;24.23;68.57
75627;BME280;67372;49.404;11.034;2023-07-29T12:05:05;97591.28;;;24.33;68.57
75627;BME280;67372;49.404;11.034;2023-07-29T12:07:31;97583.78;;;24.38;68.19
75627;BME280;67372;49.404;11.034;2023-07-29T12:09:58;97579.13;;;24.30;68.51
75627;BME280;67372;49.404;11.034;2023-07-29T12:12:25;97581.06;;;24.38;68.93
75627;BME280;67372;49.404;11.034;2023-07-29T12:14:54;97581.50;;;24.49;67.62
75627;BME280;67372;49.404;11.034;2023-07-29T12:17:20;97587.59;;;24.55;68.07
75627;BME280;67372;49.404;11.034;2023-07-29T12:19:47;97583.28;;;24.62;69.51
75627;BME280;67372;49.404;11.034;2023-07-29T12:22:18;97577.03;;;24.62;67.52
75627;BME280;67372;49.404;11.034;2023-07-29T12:24:45;97583.59;;;24.52;65.93
75627;BME280;67372;49.404;11.034;2023-07-29T12:27:13;97578.13;;;24.52;64.59
75627;BME280;67372;49.404;11.034;2023-07-29T12:29:41;97588.41;;;24.55;64.36
75627;BME280;67372;49.404;11.034;2023-07-29T12:32:08;97583.09;;;24.76;64.43
75627;BME280;67372;49.404;11.034;2023-07-29T12:34:38;97575.53;;;24.90;63.78
75627;BME280;67372;49.404;11.034;2023-07-29T12:37:05;97575.34;;;25.13;61.63
75627;BME280;67372;49.404;11.034;2023-07-29T12:39:33;97578.38;;;25.11;64.49
75627;BME280;67372;49.404;11.034;2023-07-29T12:42:01;97577.84;;;25.26;64.10
75627;BME280;67372;49.404;11.034;2023-07-29T12:44:33;97584.88;;;25.36;62.41
75627;BME280;67372;49.404;11.034;2023-07-29T12:47:04;97581.09;;;25.58;61.74
75627;BME280;67372;49.404;11.034;2023-07-29T12:49:32;97570.41;;;25.74;60.66
75627;BME280;67372;49.404;11.034;2023-07-29T12:51:59;97578.25;;;26.05;59.24
75627;BME280;67372;49.404;11.034;2023-07-29T12:54:26;97575.50;;;26.25;57.43
75627;BME280;67372;49.404;11.034;2023-07-29T12:56:53;97556.78;;;26.15;59.40